TimeEST,TemperatureF,Dew PointF,Humidity,Sea Level PressureIn,VisibilityMPH,Wind Direction,Wind SpeedMPH,Gust SpeedMPH,PrecipitationIn,Events,Conditions,WindDirDegrees,DateUTC
1:52 AM,34.0,21.0,59,29.94,10.0,North,10.4,-,N/A,,Mostly Cloudy,360,2013-03-03 06:52:00
2:52 AM,32.0,19.0,59,29.93,10.0,North,4.6,-,N/A,,Scattered Clouds,10,2013-03-03 07:52:00
3:52 AM,30.9,19.0,61,29.93,10.0,Calm,Calm,-,N/A,,Clear,0,2013-03-03 08:52:00
4:52 AM,28.0,19.0,69,29.93,10.0,NW,3.5,-,N/A,,Clear,320,2013-03-03 09:52:00
5:52 AM,26.1,21.0,81,29.95,10.0,WNW,3.5,-,N/A,,Clear,290,2013-03-03 10:52:00
7:52 AM,30.9,21.0,67,29.98,10.0,NNW,4.6,-,N/A,,Clear,330,2013-03-03 12:52:00
8:52 AM,36.0,21.0,55,29.98,10.0,NNW,8.1,-,N/A,,Clear,330,2013-03-03 13:52:00
9:52 AM,39.0,18.0,43,29.97,10.0,NW,9.2,17.3,N/A,,Clear,310,2013-03-03 14:52:00
10:52 AM,42.1,19.0,40,29.96,10.0,NW,10.4,-,N/A,,Clear,320,2013-03-03 15:52:00
11:52 AM,42.1,19.0,40,29.95,10.0,NW,5.8,16.1,N/A,,Scattered Clouds,310,2013-03-03 16:52:00
12:52 PM,46.0,19.9,35,29.92,10.0,WNW,9.2,17.3,N/A,,Partly Cloudy,290,2013-03-03 17:52:00
1:52 PM,45.0,19.9,37,29.90,10.0,West,13.8,19.6,N/A,,Partly Cloudy,280,2013-03-03 18:52:00
2:52 PM,46.9,19.9,34,29.89,10.0,West,10.4,18.4,N/A,,Clear,280,2013-03-03 19:52:00
3:52 PM,46.9,19.0,33,29.88,10.0,NNW,11.5,18.4,N/A,,Clear,340,2013-03-03 20:52:00
4:52 PM,46.0,19.0,34,29.88,10.0,NNW,11.5,-,N/A,,Clear,330,2013-03-03 21:52:00
5:52 PM,44.1,19.0,37,29.91,10.0,WNW,11.5,-,N/A,,Clear,300,2013-03-03 22:52:00
6:52 PM,41.0,19.9,43,29.92,10.0,West,4.6,-,N/A,,Clear,280,2013-03-03 23:52:00
7:52 PM,37.9,21.9,53,29.94,10.0,West,4.6,-,N/A,,Clear,260,2013-03-04 00:52:00
8:52 PM,34.0,21.9,61,29.96,10.0,NNW,5.8,-,N/A,,Clear,330,2013-03-04 01:52:00
9:52 PM,34.0,19.9,56,29.99,10.0,NNW,4.6,-,N/A,,Clear,340,2013-03-04 02:52:00
10:52 PM,33.1,19.0,56,30.00,10.0,NNW,5.8,-,N/A,,Clear,330,2013-03-04 03:52:00
11:52 PM,30.9,18.0,59,30.01,10.0,NNW,5.8,-,N/A,,Clear,340,2013-03-04 04:52:00